Terminal Aerodrome Forecast
Issued by NWS

Home | Current Version | Previous Version | Text Only | Print | Product List | Glossary On
Versions: 1 2 3 4 5 6 7 8 9 10 11 12
000
FTAK31 PAJN 232320
TAFAJN
TAF
PAJN 232320Z 2400/2424 24008KT P6SM FEW025 FEW200
     FM240200 30004KT P6SM FEW200
     FM240700 VRB03KT P6SM FEW200=

USA.gov is the U.S. government's official web portal to all federal, state and local government web resources and services.